Time;durP1;ratioP1;P1;durP2;ratioP2;P2;SDS_P1;SDS_P2;PMS_P1;PMS_P2;Temp;Humidity;BMP_temperature;BMP_pressure;BME280_temperature;BME280_humidity;BME280_pressure;Samples;Min_cycle;Max_cycle;Signal;HPM_P1;HPM_P2
2023/05/30 00:00:43;;;;;;;18.75;3.42;;;;;;;;;;5108506;28;20054;-72
2023/05/30 00:03:09;;;;;;;17.98;3.35;;;;;;;;;;5141745;27;20051;-72
2023/05/30 00:05:36;;;;;;;19.25;3.72;;;;;;;;;;5088159;28;20083;-72
2023/05/30 00:08:03;;;;;;;19.17;3.63;;;;;;;;;;5122740;28;20489;-72
2023/05/30 00:10:29;;;;;;;;;;;;;;;;;;5107513;28;20129;-72
2023/05/30 00:12:55;;;;;;;18.95;3.83;;;;;;;;;;5108726;28;19960;-72
2023/05/30 00:15:22;;;;;;;15.45;3.65;;;;;;;;;;5142688;27;20043;-72
2023/05/30 00:17:52;;;;;;;15.60;3.22;;;;;;;;;;5108393;28;20384;-72
2023/05/30 00:20:18;;;;;;;12.40;3.40;;;;;;;;;;5093082;28;20097;-72
2023/05/30 00:22:45;;;;;;;;;;;;;;;;;;5088403;28;20105;-72
2023/05/30 00:25:11;;;;;;;15.93;3.58;;;;;;;;;;5089089;28;20030;-72
2023/05/30 00:27:37;;;;;;;14.50;3.38;;;;;;;;;;5088681;28;20097;-72
2023/05/30 00:30:03;;;;;;;14.82;3.15;;;;;;;;;;5088835;28;20051;-72
2023/05/30 00:32:29;;;;;;;;;;;;;;;;;;5090110;28;20056;-73
2023/05/30 00:34:56;;;;;;;12.82;3.38;;;;;;;;;;5105561;28;19943;-72
2023/05/30 00:37:22;;;;;;;10.10;3.30;;;;;;;;;;5135724;27;20035;-72
2023/05/30 00:39:48;;;;;;;14.15;3.30;;;;;;;;;;5109639;28;20123;-72
2023/05/30 00:42:14;;;;;;;16.08;3.58;;;;;;;;;;5109234;28;20051;-72
2023/05/30 00:44:40;;;;;;;;;;;;;;;;;;5109991;28;20176;-72
2023/05/30 00:47:06;;;;;;;16.88;3.28;;;;;;;;;;5110196;28;20333;-72
2023/05/30 00:49:33;;;;;;;15.77;3.30;;;;;;;;;;5109167;28;20056;-72
2023/05/30 00:51:59;;;;;;;9.98;3.20;;;;;;;;;;5110805;28;20064;-72
2023/05/30 00:54:25;;;;;;;;;;;;;;;;;;5110809;28;20048;-72
2023/05/30 00:56:51;;;;;;;12.43;3.50;;;;;;;;;;5108630;28;19920;-72
2023/05/30 00:59:18;;;;;;;15.93;3.75;;;;;;;;;;5105405;28;20036;-73
2023/05/30 01:01:45;;;;;;;9.95;2.95;;;;;;;;;;5090432;28;20101;-72
2023/05/30 01:04:11;;;;;;;14.93;3.30;;;;;;;;;;5104894;28;20079;-72
2023/05/30 01:06:41;;;;;;;12.65;3.50;;;;;;;;;;5094583;28;20124;-72
2023/05/30 01:09:08;;;;;;;11.10;3.80;;;;;;;;;;5093480;28;20105;-72
2023/05/30 01:11:37;;;;;;;13.93;4.18;;;;;;;;;;5109235;28;20044;-72
2023/05/30 01:14:10;;;;;;;17.10;4.00;;;;;;;;;;5093562;28;20058;-72
2023/05/30 01:16:42;;;;;;;15.88;3.40;;;;;;;;;;5126901;27;20391;-72
2023/05/30 01:19:23;;;;;;;9.73;3.42;;;;;;;;;;5091679;28;20468;-72
2023/05/30 01:21:55;;;;;;;14.50;4.20;;;;;;;;;;5093429;28;20075;-72
2023/05/30 01:24:30;;;;;;;11.48;3.80;;;;;;;;;;5094709;28;20477;-72
2023/05/30 01:27:11;;;;;;;17.85;4.00;;;;;;;;;;5093681;28;20055;-72
2023/05/30 01:29:38;;;;;;;11.68;3.63;;;;;;;;;;5109103;28;20048;-72
2023/05/30 01:32:05;;;;;;;18.27;4.10;;;;;;;;;;5108909;28;20472;-72
2023/05/30 01:34:31;;;;;;;12.23;3.75;;;;;;;;;;5137316;27;20079;-72
2023/05/30 01:36:57;;;;;;;11.65;3.70;;;;;;;;;;5112475;28;20043;-72
2023/05/30 01:39:23;;;;;;;13.40;3.88;;;;;;;;;;5112170;28;20044;-72
2023/05/30 01:41:55;;;;;;;15.93;3.70;;;;;;;;;;5112247;28;20086;-73
2023/05/30 01:44:31;;;;;;;14.10;4.00;;;;;;;;;;5111096;28;20104;-72
2023/05/30 01:47:04;;;;;;;14.60;4.07;;;;;;;;;;5112514;28;20086;-72
2023/05/30 01:49:38;;;;;;;14.98;4.00;;;;;;;;;;5090907;28;20067;-72
2023/05/30 01:52:09;;;;;;;14.40;3.85;;;;;;;;;;5102357;28;20055;-72
2023/05/30 01:54:36;;;;;;;14.30;4.30;;;;;;;;;;5112652;28;20389;-72
2023/05/30 01:57:07;;;;;;;14.70;4.28;;;;;;;;;;5111710;28;20130;-72
2023/05/30 01:59:33;;;;;;;13.20;3.85;;;;;;;;;;5111282;28;20065;-72
2023/05/30 02:02:00;;;;;;;12.82;3.33;;;;;;;;;;5102187;28;20048;-72
2023/05/30 02:04:26;;;;;;;12.32;3.78;;;;;;;;;;5117788;27;20439;-72
2023/05/30 02:06:53;;;;;;;14.02;3.67;;;;;;;;;;5107383;28;20392;-72
2023/05/30 02:09:19;;;;;;;16.75;3.97;;;;;;;;;;5105957;28;20055;-72
2023/05/30 02:11:45;;;;;;;13.13;3.90;;;;;;;;;;5111625;28;20104;-72
2023/05/30 02:14:12;;;;;;;9.77;3.53;;;;;;;;;;5128182;27;20602;-73
2023/05/30 02:16:39;;;;;;;15.55;3.70;;;;;;;;;;5111848;28;20040;-72
2023/05/30 02:19:06;;;;;;;15.93;4.03;;;;;;;;;;5144453;27;20047;-72
2023/05/30 02:21:32;;;;;;;14.65;4.25;;;;;;;;;;5140040;27;20047;-72
2023/05/30 02:23:58;;;;;;;;;;;;;;;;;;5125730;27;20366;-72
2023/05/30 02:26:26;;;;;;;13.82;3.45;;;;;;;;;;5090508;28;20019;-72
2023/05/30 02:28:52;;;;;;;14.82;3.97;;;;;;;;;;5108056;28;20052;-72
2023/05/30 02:31:18;;;;;;;14.50;4.60;;;;;;;;;;5107861;28;20524;-72
2023/05/30 02:33:44;;;;;;;14.50;3.78;;;;;;;;;;5123617;27;20117;-72
2023/05/30 02:36:10;;;;;;;16.38;3.90;;;;;;;;;;5107957;28;20127;-72
2023/05/30 02:38:39;;;;;;;13.38;3.78;;;;;;;;;;5105650;28;20048;-72
2023/05/30 02:41:05;;;;;;;12.10;3.53;;;;;;;;;;5111458;28;20043;-72
2023/05/30 02:43:31;;;;;;;17.40;4.00;;;;;;;;;;5110425;28;20674;-72
2023/05/30 02:45:57;;;;;;;11.70;4.00;;;;;;;;;;5107826;28;20485;-72
2023/05/30 02:48:23;;;;;;;14.68;4.03;;;;;;;;;;5088724;28;20051;-72
2023/05/30 02:50:49;;;;;;;12.75;4.03;;;;;;;;;;5091094;28;20055;-72
2023/05/30 02:53:15;;;;;;;15.07;4.35;;;;;;;;;;5107167;28;20540;-73
2023/05/30 02:55:42;;;;;;;;;;;;;;;;;;5091029;28;20087;-72
2023/05/30 02:58:11;;;;;;;13.53;3.80;;;;;;;;;;5102590;28;19954;-72
2023/05/30 03:00:38;;;;;;;14.02;3.83;;;;;;;;;;5111577;28;20115;-72
2023/05/30 03:03:04;;;;;;;13.95;4.00;;;;;;;;;;5106514;28;20516;-72
2023/05/30 03:05:30;;;;;;;13.63;3.78;;;;;;;;;;5141816;27;20044;-72
2023/05/30 03:07:56;;;;;;;16.05;3.67;;;;;;;;;;5111869;28;20043;-72
2023/05/30 03:10:22;;;;;;;14.95;3.78;;;;;;;;;;5110161;28;20047;-72
2023/05/30 03:12:48;;;;;;;11.38;3.47;;;;;;;;;;5111474;28;20095;-72
2023/05/30 03:15:14;;;;;;;15.82;3.58;;;;;;;;;;5110550;28;20047;-73
2023/05/30 03:17:42;;;;;;;14.30;3.60;;;;;;;;;;5109497;28;20047;-72
2023/05/30 03:20:08;;;;;;;12.40;3.67;;;;;;;;;;5108832;28;20059;-73
2023/05/30 03:22:34;;;;;;;17.98;3.88;;;;;;;;;;5131115;27;20051;-72
2023/05/30 03:25:00;;;;;;;15.82;3.75;;;;;;;;;;5111656;28;20044;-72
2023/05/30 03:27:26;;;;;;;;;;;;;;;;;;5111290;28;20050;-72
2023/05/30 03:29:53;;;;;;;12.30;3.42;;;;;;;;;;5109392;28;19919;-72
2023/05/30 03:32:19;;;;;;;11.25;3.47;;;;;;;;;;5143779;27;20123;-73
2023/05/30 03:34:46;;;;;;;;;;;;;;;;;;5109791;28;20054;-72
2023/05/30 03:37:12;;;;;;;11.52;3.67;;;;;;;;;;5111324;28;19920;-72
2023/05/30 03:39:38;;;;;;;;;;;;;;;;;;5110474;28;20108;-72
2023/05/30 03:42:04;;;;;;;8.68;3.63;;;;;;;;;;5109632;28;19920;-72
2023/05/30 03:44:30;;;;;;;;;;;;;;;;;;5096017;28;20051;-72
2023/05/30 03:46:56;;;;;;;10.32;3.10;;;;;;;;;;5111466;28;20363;-72
2023/05/30 03:49:22;;;;;;;;;;;;;;;;;;5108544;28;20055;-72
2023/05/30 03:51:48;;;;;;;11.00;3.25;;;;;;;;;;5111213;28;20015;-72
2023/05/30 03:54:14;;;;;;;13.55;3.45;;;;;;;;;;5111399;28;20050;-72
2023/05/30 03:56:41;;;;;;;14.57;3.30;;;;;;;;;;5109333;28;20051;-72
2023/05/30 03:59:10;;;;;;;11.90;3.97;;;;;;;;;;5093370;28;20401;-72
2023/05/30 04:01:36;;;;;;;14.55;3.30;;;;;;;;;;5106106;28;20044;-72
2023/05/30 04:04:03;;;;;;;14.95;3.50;;;;;;;;;;5089505;28;20048;-72
2023/05/30 04:06:29;;;;;;;14.73;3.63;;;;;;;;;;5106125;28;20048;-72
2023/05/30 04:08:56;;;;;;;12.85;3.45;;;;;;;;;;5124708;28;20048;-72
2023/05/30 04:11:21;;;;;;;;;;;;;;;;;;5109834;28;20051;-72
2023/05/30 04:13:48;;;;;;;14.13;3.92;;;;;;;;;;5092280;28;19920;-72
2023/05/30 04:16:14;;;;;;;;;;;;;;;;;;5107051;28;20068;-72
2023/05/30 04:18:43;;;;;;;10.15;3.55;;;;;;;;;;5087595;28;19926;-72
2023/05/30 04:21:11;;;;;;;13.40;3.40;;;;;;;;;;5092152;28;20067;-72
2023/05/30 04:23:39;;;;;;;14.23;3.88;;;;;;;;;;5144038;27;20062;-72
2023/05/30 04:26:06;;;;;;;19.00;3.72;;;;;;;;;;5144313;27;20047;-72
2023/05/30 04:28:36;;;;;;;15.90;3.75;;;;;;;;;;5143390;27;20059;-72
2023/05/30 04:31:05;;;;;;;13.85;3.55;;;;;;;;;;5144499;27;20051;-72
2023/05/30 04:33:34;;;;;;;15.95;3.80;;;;;;;;;;5142329;27;20043;-72
2023/05/30 04:36:01;;;;;;;15.77;3.60;;;;;;;;;;5144405;27;20055;-72
2023/05/30 04:38:28;;;;;;;18.27;3.80;;;;;;;;;;5108541;28;20056;-72
2023/05/30 04:40:54;;;;;;;12.10;3.53;;;;;;;;;;5140324;27;20127;-72
2023/05/30 04:43:20;;;;;;;13.88;3.85;;;;;;;;;;5113005;28;20039;-73
2023/05/30 04:45:49;;;;;;;12.23;3.40;;;;;;;;;;5124529;27;20058;-72
2023/05/30 04:48:16;;;;;;;13.55;3.55;;;;;;;;;;5108977;28;20052;-73
2023/05/30 04:50:46;;;;;;;13.27;3.28;;;;;;;;;;5093790;28;20056;-72
2023/05/30 04:53:13;;;;;;;19.02;3.35;;;;;;;;;;5144253;27;20059;-72
2023/05/30 04:55:41;;;;;;;14.13;4.25;;;;;;;;;;5147444;27;20047;-72
2023/05/30 04:58:07;;;;;;;9.75;3.30;;;;;;;;;;5145838;27;20051;-72
2023/05/30 05:00:35;;;;;;;;;;;;;;;;;;5110300;28;20051;-72
2023/05/30 05:03:01;;;;;;;10.98;3.42;;;;;;;;;;5113685;27;19919;-72
2023/05/30 05:05:27;;;;;;;;;;;;;;;;;;5112495;28;20585;-72
2023/05/30 05:07:53;;;;;;;11.77;3.28;;;;;;;;;;5114220;28;20042;-72
2023/05/30 05:10:19;;;;;;;15.82;3.53;;;;;;;;;;5102994;28;20087;-72
2023/05/30 05:12:45;;;;;;;;;;;;;;;;;;5093210;28;20059;-72
2023/05/30 05:15:12;;;;;;;10.25;3.50;;;;;;;;;;5093696;28;20441;-72
2023/05/30 05:17:38;;;;;;;13.15;3.80;;;;;;;;;;5091219;28;20578;-72
2023/05/30 05:20:05;;;;;;;;;;;;;;;;;;5133130;27;20066;-72
2023/05/30 05:22:32;;;;;;;16.80;3.55;;;;;;;;;;5126081;27;20007;-72
2023/05/30 05:24:58;;;;;;;16.05;3.45;;;;;;;;;;5093837;28;20164;-72
2023/05/30 05:27:25;;;;;;;12.23;3.08;;;;;;;;;;5091749;28;20051;-73
2023/05/30 05:29:51;;;;;;;14.48;3.47;;;;;;;;;;5126627;27;20050;-72
2023/05/30 05:32:17;;;;;;;15.05;3.45;;;;;;;;;;5101099;28;20102;-72
2023/05/30 05:34:43;;;;;;;15.55;3.50;;;;;;;;;;5107491;28;20040;-72
2023/05/30 05:37:09;;;;;;;13.73;3.33;;;;;;;;;;5093629;28;20087;-72
2023/05/30 05:39:35;;;;;;;17.55;3.47;;;;;;;;;;5092769;28;20051;-72
2023/05/30 05:42:02;;;;;;;12.57;3.10;;;;;;;;;;5091132;28;20102;-72
2023/05/30 05:44:29;;;;;;;14.02;3.45;;;;;;;;;;5091153;28;20127;-72
2023/05/30 05:46:56;;;;;;;12.20;3.80;;;;;;;;;;5108588;28;20078;-72
2023/05/30 05:49:22;;;;;;;14.10;3.20;;;;;;;;;;5110535;28;20496;-72
2023/05/30 05:51:48;;;;;;;;;;;;;;;;;;5107369;28;20052;-72
2023/05/30 05:54:14;;;;;;;14.93;3.57;;;;;;;;;;5091944;28;19966;-72
2023/05/30 05:56:40;;;;;;;;;;;;;;;;;;5092634;28;20515;-73
2023/05/30 05:59:06;;;;;;;14.48;3.55;;;;;;;;;;5092636;28;20007;-72
2023/05/30 06:01:33;;;;;;;18.35;4.00;;;;;;;;;;5095139;28;20492;-72
2023/05/30 06:04:03;;;;;;;13.98;3.20;;;;;;;;;;5111315;28;20097;-72
2023/05/30 06:06:29;;;;;;;11.20;3.28;;;;;;;;;;5107391;28;20054;-73
2023/05/30 06:08:56;;;;;;;13.68;3.33;;;;;;;;;;5092798;28;20131;-72
2023/05/30 06:11:22;;;;;;;18.63;3.28;;;;;;;;;;5108402;28;20054;-72
2023/05/30 06:13:48;;;;;;;10.02;3.10;;;;;;;;;;5107151;28;20048;-72
2023/05/30 06:16:14;;;;;;;;;;;;;;;;;;5102621;28;20100;-72
2023/05/30 06:18:40;;;;;;;10.75;3.10;;;;;;;;;;5110616;28;19923;-72
2023/05/30 06:21:10;;;;;;;17.85;3.63;;;;;;;;;;5111217;28;20392;-73
2023/05/30 06:23:36;;;;;;;22.38;3.55;;;;;;;;;;5144280;27;20044;-72
2023/05/30 06:26:02;;;;;;;13.75;3.17;;;;;;;;;;5112964;28;20047;-73
2023/05/30 06:28:28;;;;;;;8.90;3.03;;;;;;;;;;5111182;28;20130;-80
2023/05/30 06:30:54;;;;;;;;;;;;;;;;;;5103759;28;20043;-81
2023/05/30 06:33:23;;;;;;;10.20;3.08;;;;;;;;;;5109555;28;20447;-74
2023/05/30 06:35:49;;;;;;;11.38;2.67;;;;;;;;;;5111235;28;20221;-76
2023/05/30 06:38:16;;;;;;;18.52;3.60;;;;;;;;;;5094501;28;20508;-76
2023/05/30 06:40:42;;;;;;;12.60;3.20;;;;;;;;;;5145544;27;20063;-71
2023/05/30 06:43:08;;;;;;;10.95;3.17;;;;;;;;;;5110061;28;20043;-72
2023/05/30 06:45:34;;;;;;;12.20;2.83;;;;;;;;;;5110264;28;20055;-70
2023/05/30 06:48:01;;;;;;;;;;;;;;;;;;5133911;27;20115;-73
2023/05/30 06:50:27;;;;;;;11.55;3.05;;;;;;;;;;5090306;28;19920;-73
2023/05/30 06:52:54;;;;;;;14.38;3.30;;;;;;;;;;5090583;28;20039;-72
2023/05/30 06:55:19;;;;;;;;;;;;;;;;;;5111747;28;20047;-72
2023/05/30 06:57:48;;;;;;;10.55;2.80;;;;;;;;;;5110007;28;19920;-72
2023/05/30 07:00:15;;;;;;;10.18;2.85;;;;;;;;;;5108575;28;20051;-72
2023/05/30 07:02:41;;;;;;;12.20;3.28;;;;;;;;;;5106273;28;20052;-72
2023/05/30 07:05:07;;;;;;;14.88;3.47;;;;;;;;;;5098631;28;20048;-72
2023/05/30 07:07:34;;;;;;;10.52;2.95;;;;;;;;;;5091261;28;20044;-76
2023/05/30 07:10:00;;;;;;;12.80;2.72;;;;;;;;;;5124804;27;20052;-72
2023/05/30 07:12:26;;;;;;;;;;;;;;;;;;5107199;28;20060;-71
2023/05/30 07:14:52;;;;;;;13.30;3.05;;;;;;;;;;5089927;28;20797;-72
2023/05/30 07:17:18;;;;;;;10.13;3.53;;;;;;;;;;5123902;27;20056;-74
2023/05/30 07:19:45;;;;;;;;;;;;;;;;;;5106418;28;20397;-72
2023/05/30 07:22:11;;;;;;;11.63;2.70;;;;;;;;;;5106117;28;19922;-73
2023/05/30 07:24:37;;;;;;;8.65;2.63;;;;;;;;;;5110025;28;20075;-73
2023/05/30 07:27:03;;;;;;;10.90;2.97;;;;;;;;;;5093368;28;20039;-76
2023/05/30 07:29:29;;;;;;;;;;;;;;;;;;5093923;28;20048;-76
2023/05/30 07:31:55;;;;;;;11.98;2.70;;;;;;;;;;5107477;28;19976;-74
2023/05/30 07:34:21;;;;;;;;;;;;;;;;;;5106065;28;20052;-72
2023/05/30 07:36:47;;;;;;;13.85;3.25;;;;;;;;;;5109831;28;19979;-72
2023/05/30 07:39:13;;;;;;;;;;;;;;;;;;5127589;27;20454;-72
2023/05/30 07:41:39;;;;;;;8.88;2.88;;;;;;;;;;5109811;28;20017;-72
2023/05/30 07:44:05;;;;;;;14.25;3.60;;;;;;;;;;5110153;28;20051;-72
2023/05/30 07:46:31;;;;;;;14.52;3.50;;;;;;;;;;5110561;28;20054;-72
2023/05/30 07:48:57;;;;;;;;;;;;;;;;;;5109465;28;20727;-72
2023/05/30 07:51:23;;;;;;;17.17;3.30;;;;;;;;;;5108079;28;19978;-72
2023/05/30 07:53:49;;;;;;;;;;;;;;;;;;5101930;28;20090;-72
2023/05/30 07:56:15;;;;;;;15.10;3.78;;;;;;;;;;5088872;28;19958;-72
2023/05/30 07:58:41;;;;;;;11.20;3.55;;;;;;;;;;5088184;28;20048;-73
2023/05/30 08:01:07;;;;;;;11.32;3.08;;;;;;;;;;5105569;28;20044;-72
2023/05/30 08:03:33;;;;;;;10.38;3.10;;;;;;;;;;5113534;28;20047;-72
2023/05/30 08:05:59;;;;;;;11.13;3.22;;;;;;;;;;5090712;28;20047;-72
2023/05/30 08:08:25;;;;;;;;;;;;;;;;;;5098199;28;20126;-72
2023/05/30 08:10:51;;;;;;;12.50;3.60;;;;;;;;;;5108652;28;20046;-73
2023/05/30 08:13:18;;;;;;;14.30;3.70;;;;;;;;;;5105124;28;20394;-72
2023/05/30 08:15:45;;;;;;;16.98;3.97;;;;;;;;;;5111942;28;20040;-72
2023/05/30 08:18:11;;;;;;;12.43;3.60;;;;;;;;;;5098714;28;20202;-73
2023/05/30 08:20:37;;;;;;;14.65;3.70;;;;;;;;;;5109023;28;20047;-73
2023/05/30 08:23:03;;;;;;;;;;;;;;;;;;5106328;28;20051;-72
2023/05/30 08:25:35;;;;;;;11.88;3.72;;;;;;;;;;5114940;28;19924;-72
2023/05/30 08:28:01;;;;;;;12.75;3.80;;;;;;;;;;5114147;27;20102;-72
2023/05/30 08:30:27;;;;;;;12.95;3.83;;;;;;;;;;5112910;28;20043;-76
2023/05/30 08:32:53;;;;;;;11.77;3.20;;;;;;;;;;5116404;27;20066;-74
2023/05/30 08:35:19;;;;;;;;;;;;;;;;;;5112938;28;20046;-73
2023/05/30 08:37:45;;;;;;;10.68;3.28;;;;;;;;;;5106441;28;20440;-75
2023/05/30 08:40:12;;;;;;;;;;;;;;;;;;5119704;27;20064;-71
2023/05/30 08:42:38;;;;;;;11.90;3.10;;;;;;;;;;5095319;28;19926;-73
2023/05/30 08:45:05;;;;;;;9.73;3.17;;;;;;;;;;5129352;27;20047;-71
2023/05/30 08:47:31;;;;;;;11.55;3.50;;;;;;;;;;5112805;28;20640;-71
2023/05/30 08:50:01;;;;;;;9.25;3.08;;;;;;;;;;5111782;28;20507;-73
2023/05/30 08:52:29;;;;;;;14.45;3.30;;;;;;;;;;5113753;28;20047;-71
2023/05/30 08:54:58;;;;;;;9.40;3.10;;;;;;;;;;5146792;27;20475;-68
2023/05/30 08:57:27;;;;;;;10.40;3.53;;;;;;;;;;5113341;28;20051;-72
2023/05/30 08:59:55;;;;;;;13.40;2.83;;;;;;;;;;5112152;28;20055;-72
2023/05/30 09:02:21;;;;;;;4.78;2.40;;;;;;;;;;5110312;28;20048;-74
2023/05/30 09:04:49;;;;;;;7.95;2.72;;;;;;;;;;5108060;28;20435;-75
2023/05/30 09:07:15;;;;;;;6.90;2.63;;;;;;;;;;5108869;28;20127;-75
2023/05/30 09:09:42;;;;;;;8.13;2.47;;;;;;;;;;5108848;28;20130;-72
2023/05/30 09:12:11;;;;;;;6.40;2.47;;;;;;;;;;5095539;28;20063;-74
2023/05/30 09:14:38;;;;;;;9.23;2.65;;;;;;;;;;5111829;28;20424;-74
2023/05/30 09:17:04;;;;;;;9.18;2.53;;;;;;;;;;5111659;28;20048;-74
2023/05/30 09:19:30;;;;;;;6.85;2.28;;;;;;;;;;5111800;28;20546;-74
2023/05/30 09:21:56;;;;;;;;;;;;;;;;;;5109753;28;20113;-73
2023/05/30 09:24:22;;;;;;;6.20;2.80;;;;;;;;;;5113405;28;19923;-74
2023/05/30 09:26:56;;;;;;;5.25;2.40;;;;;;;;;;5111531;28;20511;-74
2023/05/30 09:29:22;;;;;;;19.42;3.30;;;;;;;;;;5112455;28;20123;-74
2023/05/30 09:31:49;;;;;;;8.25;2.53;;;;;;;;;;5110597;28;20556;-82
2023/05/30 09:34:18;;;;;;;7.05;2.55;;;;;;;;;;5110305;28;20048;-74
2023/05/30 09:36:53;;;;;;;3.60;1.92;;;;;;;;;;5100400;28;20127;-73
2023/05/30 09:39:19;;;;;;;6.47;2.20;;;;;;;;;;5105088;28;20163;-74
2023/05/30 09:41:46;;;;;;;4.00;1.88;;;;;;;;;;5109705;28;20048;-74
2023/05/30 09:44:12;;;;;;;5.22;2.05;;;;;;;;;;5109991;28;20040;-73
2023/05/30 09:46:38;;;;;;;6.07;2.30;;;;;;;;;;5111633;28;20662;-74
2023/05/30 09:49:14;;;;;;;5.57;2.15;;;;;;;;;;5109606;28;20039;-73
2023/05/30 09:51:41;;;;;;;4.63;2.08;;;;;;;;;;5109787;28;20059;-74
2023/05/30 09:54:09;;;;;;;4.63;2.42;;;;;;;;;;5112186;28;20047;-74
2023/05/30 09:56:39;;;;;;;6.60;2.25;;;;;;;;;;5109556;28;20103;-74
2023/05/30 09:59:08;;;;;;;4.57;2.20;;;;;;;;;;5112469;27;20105;-72
2023/05/30 10:01:38;;;;;;;3.38;2.05;;;;;;;;;;5115055;27;20573;-73
2023/05/30 10:04:14;;;;;;;3.58;1.90;;;;;;;;;;5094158;28;20124;-72
2023/05/30 10:06:41;;;;;;;6.93;1.83;;;;;;;;;;5092653;28;20044;-73
2023/05/30 10:09:08;;;;;;;5.60;2.00;;;;;;;;;;5107986;27;20165;-73
2023/05/30 10:11:34;;;;;;;4.88;1.88;;;;;;;;;;5107057;28;20051;-72
2023/05/30 10:14:01;;;;;;;5.45;2.20;;;;;;;;;;5102072;28;20056;-73
2023/05/30 10:16:29;;;;;;;4.60;2.03;;;;;;;;;;5096619;28;20048;-72
2023/05/30 10:18:56;;;;;;;4.10;1.98;;;;;;;;;;5088776;28;20397;-72
2023/05/30 10:21:23;;;;;;;3.55;1.85;;;;;;;;;;5091026;28;20052;-72
2023/05/30 10:23:52;;;;;;;4.85;2.00;;;;;;;;;;5095576;28;20419;-73
2023/05/30 10:26:19;;;;;;;5.50;2.13;;;;;;;;;;5099604;28;20051;-73
2023/05/30 10:28:46;;;;;;;6.28;1.90;;;;;;;;;;5090486;28;20568;-73
2023/05/30 10:31:13;;;;;;;5.28;2.10;;;;;;;;;;5103595;28;20052;-73
2023/05/30 10:33:41;;;;;;;4.55;2.05;;;;;;;;;;5089170;28;20054;-73
2023/05/30 10:36:08;;;;;;;3.65;1.73;;;;;;;;;;5089962;28;20117;-73
2023/05/30 10:38:34;;;;;;;;;;;;;;;;;;5096947;28;20051;-73
2023/05/30 10:41:18;;;;;;;3.90;1.55;;;;;;;;;;5103984;28;19931;-73
2023/05/30 10:44:05;;;;;;;4.05;1.50;;;;;;;;;;5093459;28;20047;-73
2023/05/30 10:47:06;;;;;;;2.90;1.63;;;;;;;;;;5079092;28;20084;-73
2023/05/30 10:49:32;;;;;;;4.57;1.80;;;;;;;;;;5045831;28;20118;-73
2023/05/30 10:51:58;;;;;;;;;;;;;;;;;;5094211;28;20464;-72
2023/05/30 10:54:25;;;;;;;2.50;1.80;;;;;;;;;;5090170;28;19924;-73
2023/05/30 10:56:51;;;;;;;3.38;1.70;;;;;;;;;;5089941;28;20036;-74
2023/05/30 10:59:21;;;;;;;5.22;1.70;;;;;;;;;;5089366;28;20047;-74
2023/05/30 11:02:00;;;;;;;3.35;1.92;;;;;;;;;;5094032;28;20047;-73
2023/05/30 11:04:32;;;;;;;5.70;2.03;;;;;;;;;;5115380;27;20043;-73
2023/05/30 11:06:58;;;;;;;7.22;1.90;;;;;;;;;;5109759;27;20048;-73
2023/05/30 11:09:24;;;;;;;;;;;;;;;;;;5118733;27;20054;-73
2023/05/30 11:11:52;;;;;;;2.75;1.70;;;;;;;;;;5105327;28;19923;-73
2023/05/30 11:14:24;;;;;;;3.60;1.75;;;;;;;;;;5108834;27;20062;-73
2023/05/30 11:16:55;;;;;;;5.32;2.10;;;;;;;;;;5091476;28;20048;-75
2023/05/30 11:19:42;;;;;;;3.08;1.83;;;;;;;;;;5105913;28;20138;-74
2023/05/30 11:22:10;;;;;;;5.28;1.70;;;;;;;;;;5097181;28;20044;-74
2023/05/30 11:24:36;;;;;;;5.50;1.90;;;;;;;;;;5097081;28;20059;-74
2023/05/30 11:27:06;;;;;;;2.67;1.55;;;;;;;;;;5102049;28;20040;-74
2023/05/30 11:29:51;;;;;;;3.90;1.65;;;;;;;;;;5094411;28;20052;-74
2023/05/30 11:32:19;;;;;;;4.18;1.50;;;;;;;;;;5090005;28;20087;-74
2023/05/30 11:34:46;;;;;;;2.90;1.48;;;;;;;;;;5090247;28;20044;-75
2023/05/30 11:37:12;;;;;;;2.20;1.63;;;;;;;;;;5090425;28;20044;-75
2023/05/30 11:39:38;;;;;;;;;;;;;;;;;;5107171;28;20047;-74
2023/05/30 11:42:05;;;;;;;3.65;1.60;;;;;;;;;;5100151;28;19920;-73
2023/05/30 11:44:32;;;;;;;5.47;1.60;;;;;;;;;;5122956;27;20043;-75
2023/05/30 11:47:06;;;;;;;3.05;1.75;;;;;;;;;;5108826;28;20453;-75
2023/05/30 11:49:33;;;;;;;6.38;1.58;;;;;;;;;;5124249;27;20063;-74
2023/05/30 11:51:59;;;;;;;6.22;1.73;;;;;;;;;;5090794;28;20043;-71
2023/05/30 11:54:25;;;;;;;;;;;;;;;;;;5109580;28;20035;-71
2023/05/30 11:56:52;;;;;;;2.05;1.33;;;;;;;;;;5111005;28;19920;-76
2023/05/30 11:59:18;;;;;;;;;;;;;;;;;;5110600;28;20039;-75
2023/05/30 12:01:50;;;;;;;5.28;1.60;;;;;;;;;;5111367;28;19928;-75
2023/05/30 12:04:16;;;;;;;4.28;1.35;;;;;;;;;;5087739;28;20048;-75
2023/05/30 12:06:45;;;;;;;4.05;1.73;;;;;;;;;;5120411;28;20040;-75
2023/05/30 12:09:11;;;;;;;1.75;1.33;;;;;;;;;;5094281;28;20442;-74
2023/05/30 12:11:37;;;;;;;;;;;;;;;;;;5089687;28;20044;-74
2023/05/30 12:14:03;;;;;;;2.20;1.50;;;;;;;;;;5089225;28;19926;-75
2023/05/30 12:16:29;;;;;;;;;;;;;;;;;;5089767;28;20051;-74
2023/05/30 12:18:57;;;;;;;3.35;1.60;;;;;;;;;;5087846;28;19920;-74
2023/05/30 12:21:23;;;;;;;2.25;1.40;;;;;;;;;;5105158;28;20044;-74
2023/05/30 12:23:49;;;;;;;3.08;1.65;;;;;;;;;;5105935;28;20056;-74
2023/05/30 12:26:19;;;;;;;2.15;1.48;;;;;;;;;;5088648;28;20127;-74
2023/05/30 12:28:46;;;;;;;3.53;1.70;;;;;;;;;;5128785;27;20078;-74
2023/05/30 12:31:24;;;;;;;2.28;1.75;;;;;;;;;;5108356;28;20048;-74
2023/05/30 12:33:50;;;;;;;4.32;1.50;;;;;;;;;;5088486;28;20101;-74
2023/05/30 12:36:16;;;;;;;;;;;;;;;;;;5096688;28;20067;-71
2023/05/30 12:38:43;;;;;;;2.20;1.60;;;;;;;;;;5089746;28;19967;-71
2023/05/30 12:41:08;;;;;;;;;;;;;;;;;;5121773;28;20048;-74
2023/05/30 12:43:36;;;;;;;2.85;1.58;;;;;;;;;;5109969;28;19927;-70
2023/05/30 12:46:08;;;;;;;2.38;1.55;;;;;;;;;;5109736;28;20046;-75
2023/05/30 12:48:34;;;;;;;3.20;1.60;;;;;;;;;;5141187;27;20069;-74
2023/05/30 12:51:00;;;;;;;;;;;;;;;;;;5111075;28;20040;-75
2023/05/30 12:53:27;;;;;;;3.35;1.95;;;;;;;;;;5098751;28;19966;-74
2023/05/30 12:55:53;;;;;;;4.10;1.63;;;;;;;;;;5110680;28;20109;-75
2023/05/30 12:58:19;;;;;;;;;;;;;;;;;;5109942;28;20126;-75
2023/05/30 13:00:45;;;;;;;3.63;1.70;;;;;;;;;;5098662;28;20043;-75
2023/05/30 13:03:11;;;;;;;;;;;;;;;;;;5124460;27;20047;-74
2023/05/30 13:05:39;;;;;;;6.80;1.80;;;;;;;;;;5104869;28;19970;-75
2023/05/30 13:08:06;;;;;;;6.28;1.92;;;;;;;;;;5114079;28;20051;-74
2023/05/30 13:10:32;;;;;;;;;;;;;;;;;;5113115;28;20047;-75
2023/05/30 13:12:58;;;;;;;4.45;1.98;;;;;;;;;;5112226;28;19941;-75
2023/05/30 13:15:24;;;;;;;;;;;;;;;;;;5112036;28;20420;-74
2023/05/30 13:17:51;;;;;;;4.05;2.08;;;;;;;;;;5105485;28;19920;-75
2023/05/30 13:20:17;;;;;;;4.13;1.77;;;;;;;;;;5106580;27;20036;-73
2023/05/30 13:22:43;;;;;;;;;;;;;;;;;;5115021;27;20047;-73
2023/05/30 13:25:09;;;;;;;4.22;1.65;;;;;;;;;;5099109;28;20392;-75
2023/05/30 13:27:35;;;;;;;3.22;1.70;;;;;;;;;;5112232;28;20075;-75
2023/05/30 13:30:01;;;;;;;;;;;;;;;;;;5118373;27;20065;-75
2023/05/30 13:32:27;;;;;;;2.53;1.60;;;;;;;;;;5117892;27;19919;-74
2023/05/30 13:34:53;;;;;;;;;;;;;;;;;;5112729;28;20077;-75
2023/05/30 13:37:21;;;;;;;5.22;2.00;;;;;;;;;;5110438;28;19928;-75
2023/05/30 13:39:47;;;;;;;2.80;1.80;;;;;;;;;;5110719;28;20126;-75
2023/05/30 13:42:13;;;;;;;;;;;;;;;;;;5113004;28;20396;-74
2023/05/30 13:44:39;;;;;;;4.15;1.90;;;;;;;;;;5098247;28;20436;-74
2023/05/30 13:47:05;;;;;;;4.15;1.80;;;;;;;;;;5113432;28;20050;-75
2023/05/30 13:49:37;;;;;;;2.85;1.80;;;;;;;;;;5107039;28;20093;-74
2023/05/30 13:52:03;;;;;;;3.33;1.60;;;;;;;;;;5104476;28;20055;-75
2023/05/30 13:54:29;;;;;;;3.45;1.60;;;;;;;;;;5112756;28;20039;-74
2023/05/30 13:56:55;;;;;;;;;;;;;;;;;;5107509;28;20043;-75
2023/05/30 13:59:21;;;;;;;3.13;1.75;;;;;;;;;;5103805;28;19972;-75
2023/05/30 14:01:48;;;;;;;;;;;;;;;;;;5092821;28;20056;-74
2023/05/30 14:04:14;;;;;;;4.70;1.52;;;;;;;;;;5090837;28;20022;-74
2023/05/30 14:06:40;;;;;;;2.67;1.48;;;;;;;;;;5091275;28;20044;-74
2023/05/30 14:09:07;;;;;;;;;;;;;;;;;;5108208;28;20044;-75
2023/05/30 14:11:35;;;;;;;3.03;1.52;;;;;;;;;;5124485;27;19927;-75
2023/05/30 14:14:01;;;;;;;2.88;1.50;;;;;;;;;;5090704;28;20067;-75
2023/05/30 14:16:29;;;;;;;3.63;1.40;;;;;;;;;;5096100;28;20456;-74
2023/05/30 14:18:55;;;;;;;1.88;1.50;;;;;;;;;;5106005;28;20048;-75
2023/05/30 14:21:22;;;;;;;;;;;;;;;;;;5106769;28;20044;-75
2023/05/30 14:23:48;;;;;;;2.50;1.50;;;;;;;;;;5105716;28;20376;-75
2023/05/30 14:26:14;;;;;;;;;;;;;;;;;;5124927;27;20040;-75
2023/05/30 14:28:41;;;;;;;4.03;1.50;;;;;;;;;;5093502;28;20238;-75
2023/05/30 14:31:08;;;;;;;2.28;1.50;;;;;;;;;;5091340;28;20121;-75
2023/05/30 14:33:34;;;;;;;3.72;1.65;;;;;;;;;;5105022;28;20137;-75
2023/05/30 14:36:00;;;;;;;;;;;;;;;;;;5107176;28;20047;-75
2023/05/30 14:38:26;;;;;;;2.38;1.55;;;;;;;;;;5095973;28;20389;-73
2023/05/30 14:40:52;;;;;;;;;;;;;;;;;;5099393;28;20052;-74
2023/05/30 14:43:19;;;;;;;3.63;1.90;;;;;;;;;;5092785;28;19972;-74
2023/05/30 14:45:45;;;;;;;3.47;2.05;;;;;;;;;;5108030;28;20040;-74
2023/05/30 14:48:12;;;;;;;;;;;;;;;;;;5110390;28;20047;-74
2023/05/30 14:50:38;;;;;;;2.03;1.60;;;;;;;;;;5110265;28;20036;-74
2023/05/30 14:53:04;;;;;;;;;;;;;;;;;;5099608;28;20060;-73
2023/05/30 14:55:30;;;;;;;2.95;1.70;;;;;;;;;;5095486;28;20315;-73